Time,TemperatureF,DewpointF,PressureIn,WindDirection,WindDirectionDegrees,WindSpeedMPH,WindSpeedGustMPH,Humidity,HourlyPrecipIn,Conditions,Clouds,dailyrainin,SolarRadiationWatts/m^2,SoftwareType,DateUTC
2013-04-08 00:10:00,59.4,49.0,30.15,South,174,3.0,6.0,68,0.00,,,0.00,0,weatherlink.com 1.10,2013-04-08 04:10:00,
2013-04-08 00:25:00,59.0,49.0,30.15,SSE,167,1.0,6.0,70,0.00,,,0.00,0,weatherlink.com 1.10,2013-04-08 04:25:00,
2013-04-08 00:40:00,58.6,49.0,30.15,South,172,0.0,4.0,71,0.00,,,0.00,0,weatherlink.com 1.10,2013-04-08 04:40:00,
2013-04-08 00:56:00,58.2,49.0,30.15,SE,144,0.0,4.0,72,0.00,,,0.00,0,weatherlink.com 1.10,2013-04-08 04:56:00,
2013-04-08 01:11:00,57.5,50.0,30.15,SSE,150,0.0,3.0,75,0.00,,,0.00,0,weatherlink.com 1.10,2013-04-08 05:11:00,
2013-04-08 01:26:00,57.3,49.0,30.15,SSE,148,0.0,2.0,75,0.00,,,0.00,0,weatherlink.com 1.10,2013-04-08 05:26:00,
2013-04-08 01:41:00,56.4,49.0,30.15,SSE,148,0.0,0.0,77,0.00,,,0.00,0,weatherlink.com 1.10,2013-04-08 05:41:00,
2013-04-08 01:56:00,55.7,49.0,30.15,SSE,168,0.0,1.0,79,0.00,,,0.00,0,weatherlink.com 1.10,2013-04-08 05:56:00,
2013-04-08 02:11:00,54.5,49.0,30.14,SSE,168,0.0,1.0,81,0.00,,,0.00,0,weatherlink.com 1.10,2013-04-08 06:11:00,
2013-04-08 02:41:00,52.9,49.0,30.14,SSE,168,0.0,0.0,85,0.00,,,0.00,0,weatherlink.com 1.10,2013-04-08 06:41:00,
2013-04-08 03:11:00,52.7,49.0,30.13,SSE,168,0.0,1.0,87,0.00,,,0.00,0,weatherlink.com 1.10,2013-04-08 07:11:00,
2013-04-08 03:26:00,52.2,49.0,30.13,SSE,168,0.0,0.0,88,0.00,,,0.00,0,weatherlink.com 1.10,2013-04-08 07:26:00,
2013-04-08 03:56:00,51.5,49.0,30.13,SSE,168,0.0,1.0,90,0.00,,,0.00,0,weatherlink.com 1.10,2013-04-08 07:56:00,
2013-04-08 04:11:00,51.4,49.0,30.13,SSE,168,0.0,1.0,90,0.00,,,0.00,0,weatherlink.com 1.10,2013-04-08 08:11:00,
2013-04-08 04:26:00,51.0,48.0,30.13,SSE,168,0.0,2.0,90,0.00,,,0.00,0,weatherlink.com 1.10,2013-04-08 08:26:00,
2013-04-08 04:41:00,50.9,48.0,30.13,SSE,168,0.0,0.0,90,0.00,,,0.00,0,weatherlink.com 1.10,2013-04-08 08:41:00,
2013-04-08 04:56:00,50.8,48.0,30.14,SSE,168,0.0,0.0,91,0.00,,,0.00,0,weatherlink.com 1.10,2013-04-08 08:56:00,
2013-04-08 05:11:00,50.4,48.0,30.13,SSE,168,0.0,0.0,90,0.00,,,0.00,0,weatherlink.com 1.10,2013-04-08 09:11:00,
2013-04-08 05:41:00,49.6,47.0,30.14,SSE,168,0.0,0.0,91,0.00,,,0.00,0,weatherlink.com 1.10,2013-04-08 09:41:00,
2013-04-08 05:56:00,49.6,47.0,30.14,SSE,168,0.0,0.0,92,0.00,,,0.00,0,weatherlink.com 1.10,2013-04-08 09:56:00,
2013-04-08 06:11:00,49.8,48.0,30.15,SSE,168,0.0,0.0,93,0.00,,,0.00,0,weatherlink.com 1.10,2013-04-08 10:11:00,
2013-04-08 07:12:00,49.9,48.0,30.17,SSE,168,0.0,0.0,94,0.00,,,0.00,25,weatherlink.com 1.10,2013-04-08 11:12:00,
2013-04-08 07:26:00,50.6,49.0,30.17,SSE,168,0.0,0.0,95,0.00,,,0.00,53,weatherlink.com 1.10,2013-04-08 11:26:00,
2013-04-08 07:42:00,51.3,50.0,30.18,SSE,168,0.0,0.0,94,0.00,,,0.00,100,weatherlink.com 1.10,2013-04-08 11:42:00,
2013-04-08 07:57:00,53.5,52.0,30.19,SSE,168,0.0,1.0,95,0.00,,,0.00,132,weatherlink.com 1.10,2013-04-08 11:57:00,
2013-04-08 08:12:00,55.9,54.0,30.19,South,174,0.0,5.0,94,0.00,,,0.00,116,weatherlink.com 1.10,2013-04-08 12:12:00,
2013-04-08 08:27:00,56.9,55.0,30.19,South,173,1.0,3.0,92,0.00,,,0.00,114,weatherlink.com 1.10,2013-04-08 12:27:00,
2013-04-08 08:42:00,57.7,55.0,30.19,SSE,157,1.0,7.0,90,0.00,,,0.00,258,weatherlink.com 1.10,2013-04-08 12:42:00,
2013-04-08 08:57:00,58.9,55.0,30.19,WSW,242,3.0,4.0,88,0.00,,,0.00,308,weatherlink.com 1.10,2013-04-08 12:57:00,
2013-04-08 09:12:00,60.4,56.0,30.19,SW,235,4.0,4.0,86,0.00,,,0.00,373,weatherlink.com 1.10,2013-04-08 13:12:00,
2013-04-08 09:27:00,62.1,57.0,30.18,WSW,245,4.0,8.0,82,0.00,,,0.00,436,weatherlink.com 1.10,2013-04-08 13:27:00,
2013-04-08 09:57:00,64.2,56.0,30.18,WSW,246,1.0,10.0,75,0.00,,,0.00,476,weatherlink.com 1.10,2013-04-08 13:57:00,
2013-04-08 10:12:00,65.2,56.0,30.18,South,181,4.0,13.0,72,0.00,,,0.00,464,weatherlink.com 1.10,2013-04-08 14:12:00,
2013-04-08 10:27:00,66.6,56.0,30.18,SW,219,2.0,14.0,69,0.00,,,0.00,510,weatherlink.com 1.10,2013-04-08 14:27:00,
2013-04-08 10:42:00,67.7,55.0,30.18,SSW,209,8.0,11.0,64,0.00,,,0.00,417,weatherlink.com 1.10,2013-04-08 14:42:00,
2013-04-08 10:57:00,68.8,55.0,30.18,SSW,211,4.0,12.0,61,0.00,,,0.00,541,weatherlink.com 1.10,2013-04-08 14:57:00,
2013-04-08 11:12:00,70.2,56.0,30.18,SSW,198,6.0,11.0,60,0.00,,,0.00,592,weatherlink.com 1.10,2013-04-08 15:12:00,
2013-04-08 11:27:00,70.5,56.0,30.18,West,279,7.0,15.0,60,0.00,,,0.00,733,weatherlink.com 1.10,2013-04-08 15:27:00,
2013-04-08 11:42:00,70.6,55.0,30.17,West,276,6.0,14.0,59,0.00,,,0.00,742,weatherlink.com 1.10,2013-04-08 15:42:00,
2013-04-08 11:57:00,71.3,56.0,30.17,WSW,237,5.0,8.0,59,0.00,,,0.00,547,weatherlink.com 1.10,2013-04-08 15:57:00,
2013-04-08 12:12:00,72.3,57.0,30.17,South,191,6.0,11.0,59,0.00,,,0.00,809,weatherlink.com 1.10,2013-04-08 16:12:00,
2013-04-08 12:27:00,73.0,56.0,30.16,SW,236,9.0,14.0,56,0.00,,,0.00,805,weatherlink.com 1.10,2013-04-08 16:27:00,
2013-04-08 12:43:00,73.6,57.0,30.15,West,281,3.0,10.0,56,0.00,,,0.00,935,weatherlink.com 1.10,2013-04-08 16:43:00,
2013-04-08 12:58:00,74.0,57.0,30.14,WSW,252,5.0,13.0,55,0.00,,,0.00,308,weatherlink.com 1.10,2013-04-08 16:58:00,
2013-04-08 13:13:00,75.6,54.0,30.14,SW,219,4.0,13.0,48,0.00,,,0.00,218,weatherlink.com 1.10,2013-04-08 17:13:00,
2013-04-08 13:43:00,75.5,55.0,30.11,WSW,240,12.0,14.0,49,0.00,,,0.00,255,weatherlink.com 1.10,2013-04-08 17:43:00,
2013-04-08 13:58:00,77.1,53.0,30.11,SSW,192,3.0,15.0,44,0.00,,,0.00,935,weatherlink.com 1.10,2013-04-08 17:58:00,
2013-04-08 14:13:00,77.5,54.0,30.10,SSW,196,5.0,11.0,44,0.00,,,0.00,942,weatherlink.com 1.10,2013-04-08 18:13:00,
2013-04-08 14:28:00,75.7,53.0,30.11,SW,217,3.0,10.0,46,0.00,,,0.00,220,weatherlink.com 1.10,2013-04-08 18:28:00,
2013-04-08 14:43:00,76.1,53.0,30.10,SW,218,6.0,15.0,44,0.00,,,0.00,898,weatherlink.com 1.10,2013-04-08 18:43:00,
2013-04-08 14:58:00,77.2,54.0,30.09,WSW,244,3.0,12.0,44,0.00,,,0.00,879,weatherlink.com 1.10,2013-04-08 18:58:00,
2013-04-08 15:13:00,77.6,54.0,30.09,WSW,238,9.0,14.0,44,0.00,,,0.00,826,weatherlink.com 1.10,2013-04-08 19:13:00,
2013-04-08 15:28:00,77.2,54.0,30.09,South,185,5.0,12.0,45,0.00,,,0.00,773,weatherlink.com 1.10,2013-04-08 19:28:00,
2013-04-08 15:43:00,78.7,54.0,30.08,SSW,196,3.0,13.0,43,0.00,,,0.00,751,weatherlink.com 1.10,2013-04-08 19:43:00,
2013-04-08 15:58:00,78.7,54.0,30.08,SSW,213,7.0,11.0,42,0.00,,,0.00,744,weatherlink.com 1.10,2013-04-08 19:58:00,
2013-04-08 16:13:00,78.5,53.0,30.07,SW,216,2.0,12.0,42,0.00,,,0.00,647,weatherlink.com 1.10,2013-04-08 20:13:00,
2013-04-08 16:28:00,78.1,53.0,30.07,South,189,2.0,11.0,42,0.00,,,0.00,197,weatherlink.com 1.10,2013-04-08 20:28:00,
2013-04-08 16:43:00,78.2,53.0,30.06,SW,234,3.0,12.0,42,0.00,,,0.00,571,weatherlink.com 1.10,2013-04-08 20:43:00,
2013-04-08 16:59:00,78.1,52.0,30.06,SSW,201,4.0,9.0,41,0.00,,,0.00,197,weatherlink.com 1.10,2013-04-08 20:59:00,
2013-04-08 17:13:00,77.2,52.0,30.06,South,184,5.0,12.0,42,0.00,,,0.00,151,weatherlink.com 1.10,2013-04-08 21:13:00,
2013-04-08 17:28:00,77.3,52.0,30.06,West,275,2.0,10.0,42,0.00,,,0.00,151,weatherlink.com 1.10,2013-04-08 21:28:00,
2013-04-08 17:43:00,77.6,53.0,30.06,SSW,213,4.0,7.0,43,0.00,,,0.00,355,weatherlink.com 1.10,2013-04-08 21:43:00,
2013-04-08 17:58:00,78.2,53.0,30.07,SSE,155,4.0,8.0,41,0.00,,,0.00,295,weatherlink.com 1.10,2013-04-08 21:58:00,
2013-04-08 18:13:00,77.9,53.0,30.07,South,171,2.0,9.0,42,0.00,,,0.00,214,weatherlink.com 1.10,2013-04-08 22:13:00,
2013-04-08 18:28:00,77.5,53.0,30.07,SSE,153,3.0,9.0,42,0.00,,,0.00,171,weatherlink.com 1.10,2013-04-08 22:28:00,
2013-04-08 18:43:00,76.7,53.0,30.07,SE,146,6.0,9.0,44,0.00,,,0.00,95,weatherlink.com 1.10,2013-04-08 22:43:00,
2013-04-08 18:58:00,75.9,53.0,30.07,WSW,248,0.0,6.0,45,0.00,,,0.00,42,weatherlink.com 1.10,2013-04-08 22:58:00,
2013-04-08 19:13:00,75.1,53.0,30.08,SW,230,1.0,5.0,46,0.00,,,0.00,25,weatherlink.com 1.10,2013-04-08 23:13:00,
2013-04-08 19:28:00,74.3,53.0,30.08,South,181,1.0,2.0,47,0.00,,,0.00,12,weatherlink.com 1.10,2013-04-08 23:28:00,
2013-04-08 19:43:00,73.4,52.0,30.08,SSE,165,0.0,5.0,48,0.00,,,0.00,0,weatherlink.com 1.10,2013-04-08 23:43:00,
2013-04-08 19:58:00,72.6,52.0,30.08,SSE,165,1.0,5.0,49,0.00,,,0.00,0,weatherlink.com 1.10,2013-04-08 23:58:00,
2013-04-08 20:13:00,71.7,52.0,30.08,SSE,166,3.0,3.0,51,0.00,,,0.00,0,weatherlink.com 1.10,2013-04-09 00:13:00,
2013-04-08 20:43:00,70.1,53.0,30.09,SSE,159,0.0,1.0,54,0.00,,,0.00,0,weatherlink.com 1.10,2013-04-09 00:43:00,
2013-04-08 21:58:00,65.2,53.0,30.11,South,177,0.0,1.0,64,0.00,,,0.00,0,weatherlink.com 1.10,2013-04-09 01:58:00,
2013-04-08 22:13:00,65.2,53.0,30.11,SSE,150,3.0,8.0,65,0.00,,,0.00,0,weatherlink.com 1.10,2013-04-09 02:13:00,
2013-04-08 22:29:00,66.8,53.0,30.12,South,169,5.0,7.0,62,0.00,,,0.00,0,weatherlink.com 1.10,2013-04-09 02:29:00,
2013-04-08 23:13:00,66.2,54.0,30.12,SSE,165,2.0,6.0,66,0.00,,,0.00,0,weatherlink.com 1.10,2013-04-09 03:13:00,
2013-04-08 23:28:00,65.8,55.0,30.12,SSE,154,1.0,5.0,68,0.00,,,0.00,0,weatherlink.com 1.10,2013-04-09 03:28:00,
2013-04-08 23:59:00,65.0,55.0,30.11,SSE,162,2.0,6.0,70,0.00,,,0.00,0,weatherlink.com 1.10,2013-04-09 03:59:00,